Time;durP1;ratioP1;P1;durP2;ratioP2;P2;SDS_P1;SDS_P2;PMS_P1;PMS_P2;Temp;Humidity;BMP_temperature;BMP_pressure;BME280_temperature;BME280_humidity;BME280_pressure;Samples;Min_cycle;Max_cycle;Signal;HPM_P1;HPM_P2
2022/03/03 00:00:08;;;;;;;41.65;30.63;;;4.30;69.70;;;;;;5080344;28;20062;-74
2022/03/03 00:02:34;;;;;;;39.72;30.75;;;4.30;69.70;;;;;;5075643;28;20545;-75
2022/03/03 00:04:59;;;;;;;40.17;30.42;;;4.30;70.00;;;;;;5077371;28;20040;-74
2022/03/03 00:07:25;;;;;;;43.28;32.35;;;4.20;70.10;;;;;;5072460;28;20055;-72
2022/03/03 00:09:51;;;;;;;41.60;33.00;;;4.20;70.10;;;;;;5081782;28;20040;-74
2022/03/03 00:12:17;;;;;;;42.28;31.95;;;4.10;69.90;;;;;;5079223;28;20040;-76
2022/03/03 00:14:43;;;;;;;42.38;30.02;;;4.10;69.80;;;;;;5077157;28;20040;-75
2022/03/03 00:17:09;;;;;;;39.65;29.33;;;4.10;69.80;;;;;;5081049;28;20497;-74
2022/03/03 00:19:34;;;;;;;45.35;31.20;;;4.10;69.90;;;;;;5074152;28;20037;-74
2022/03/03 00:22:00;;;;;;;44.38;33.10;;;4.10;70.00;;;;;;5077873;28;20123;-72
2022/03/03 00:24:26;;;;;;;42.60;30.92;;;4.10;70.20;;;;;;5077564;28;20050;-73
2022/03/03 00:26:52;;;;;;;47.33;33.45;;;4.00;70.30;;;;;;5072025;28;20058;-73
2022/03/03 00:29:18;;;;;;;43.83;32.95;;;4.10;70.10;;;;;;5074504;28;20063;-72
2022/03/03 00:31:44;;;;;;;44.72;31.42;;;4.00;69.90;;;;;;5080126;28;20488;-72
2022/03/03 00:34:10;;;;;;;41.55;31.80;;;4.00;69.80;;;;;;5071721;28;20036;-72
2022/03/03 00:36:36;;;;;;;44.25;32.08;;;4.00;69.90;;;;;;5080838;28;20619;-79
2022/03/03 00:39:04;;;;;;;41.65;32.63;;;4.00;70.00;;;;;;5087039;28;20035;-74
2022/03/03 00:41:30;;;;;;;45.42;33.10;;;4.00;70.10;;;;;;5092757;28;20054;-76
2022/03/03 00:43:56;;;;;;;45.63;33.28;;;3.90;70.30;;;;;;5088650;28;20289;-74
2022/03/03 00:46:24;;;;;;;45.80;34.10;;;3.90;70.50;;;;;;5078931;28;20092;-73
2022/03/03 00:48:51;;;;;;;47.28;33.78;;;3.90;70.50;;;;;;5079715;28;20445;-72
2022/03/03 00:51:18;;;;;;;46.25;33.60;;;3.80;70.40;;;;;;5079359;28;20452;-73
2022/03/03 00:53:44;;;;;;;47.03;34.13;;;3.80;70.60;;;;;;5079406;28;20033;-75
2022/03/03 00:56:10;;;;;;;44.72;34.63;;;3.70;70.70;;;;;;5081836;28;20038;-73
2022/03/03 00:58:35;;;;;;;44.45;32.50;;;3.70;70.80;;;;;;5073021;28;20392;-74
2022/03/03 01:01:01;;;;;;;46.97;33.38;;;3.70;70.80;;;;;;5067357;28;20039;-72
2022/03/03 01:03:28;;;;;;;44.15;31.83;;;3.70;70.90;;;;;;5072425;28;20059;-76
2022/03/03 01:05:54;;;;;;;45.08;34.15;;;3.70;71.10;;;;;;5081032;28;20035;-74
2022/03/03 01:08:20;;;;;;;44.10;33.45;;;3.70;71.20;;;;;;5068041;28;20528;-72
2022/03/03 01:10:46;;;;;;;49.65;35.65;;;3.60;71.10;;;;;;5069343;28;20044;-75
2022/03/03 01:13:12;;;;;;;46.15;34.60;;;3.60;71.30;;;;;;5076437;28;20028;-73
2022/03/03 01:15:38;;;;;;;44.53;33.17;;;3.60;71.40;;;;;;5075090;28;20032;-75
2022/03/03 01:18:03;;;;;;;43.92;32.90;;;3.60;71.50;;;;;;5072318;28;20039;-75
2022/03/03 01:20:30;;;;;;;45.80;33.67;;;3.60;71.70;;;;;;5074557;28;20032;-73
2022/03/03 01:22:56;;;;;;;41.72;32.17;;;3.60;71.80;;;;;;5076239;28;20152;-75
2022/03/03 01:25:22;;;;;;;46.65;33.75;;;3.50;72.00;;;;;;5074491;28;20025;-73
2022/03/03 01:27:48;;;;;;;44.05;32.63;;;3.60;72.20;;;;;;5084056;28;20032;-74
2022/03/03 01:30:14;;;;;;;40.42;32.15;;;3.50;72.30;;;;;;5070428;28;20059;-72
2022/03/03 01:32:40;;;;;;;40.45;30.85;;;3.50;72.40;;;;;;5076978;28;20952;-73
2022/03/03 01:35:07;;;;;;;42.10;31.65;;;3.50;72.60;;;;;;5072600;28;20347;-74
2022/03/03 01:37:33;;;;;;;44.70;33.67;;;3.50;72.70;;;;;;5068092;28;20039;-72
2022/03/03 01:39:58;;;;;;;50.28;33.08;;;3.40;72.80;;;;;;5068629;28;20036;-75
2022/03/03 01:42:25;;;;;;;40.47;31.33;;;3.40;72.90;;;;;;5073283;28;20047;-72
2022/03/03 01:44:51;;;;;;;43.00;31.83;;;3.40;73.00;;;;;;5076733;28;20039;-75
2022/03/03 01:47:25;;;;;;;41.03;32.20;;;3.30;73.10;;;;;;5073731;28;20031;-75
2022/03/03 01:49:53;;;;;;;43.35;32.05;;;3.30;73.20;;;;;;5075627;28;20044;-77
2022/03/03 01:52:19;;;;;;;44.92;32.50;;;3.30;73.30;;;;;;5069182;28;20036;-73
2022/03/03 01:54:45;;;;;;;44.63;33.83;;;3.30;73.50;;;;;;5072850;28;20502;-76
2022/03/03 01:57:12;;;;;;;49.35;33.10;;;3.30;73.50;;;;;;5072813;28;20414;-73
2022/03/03 01:59:39;;;;;;;44.40;31.60;;;3.30;73.50;;;;;;5078430;28;20281;-73
2022/03/03 02:02:08;;;;;;;43.42;32.17;;;3.20;73.60;;;;;;5070849;28;20218;-74
2022/03/03 02:04:34;;;;;;;40.15;30.35;;;3.20;73.60;;;;;;5076622;28;20099;-74
2022/03/03 02:07:00;;;;;;;43.85;31.35;;;3.20;73.80;;;;;;5080143;28;20096;-73
2022/03/03 02:09:26;;;;;;;45.20;32.08;;;3.20;73.80;;;;;;5073807;28;20604;-74
2022/03/03 02:11:51;;;;;;;49.22;34.10;;;3.20;73.90;;;;;;5071955;28;20036;-75
2022/03/03 02:14:18;;;;;;;43.05;31.77;;;3.20;73.90;;;;;;5074369;28;20097;-72
2022/03/03 02:16:43;;;;;;;43.20;31.23;;;3.20;74.00;;;;;;5074551;28;20123;-74
2022/03/03 02:19:14;;;;;;;42.58;31.70;;;3.10;74.00;;;;;;5076244;28;20064;-74
2022/03/03 02:21:40;;;;;;;45.42;31.90;;;3.10;74.20;;;;;;5073982;28;20111;-74
2022/03/03 02:24:07;;;;;;;44.88;32.03;;;3.20;74.10;;;;;;5072041;28;20044;-76
2022/03/03 02:26:33;;;;;;;44.67;33.00;;;3.10;74.10;;;;;;5083543;28;20047;-75
2022/03/03 02:28:59;;;;;;;46.13;32.47;;;3.10;74.20;;;;;;5079161;28;20064;-73
2022/03/03 02:31:25;;;;;;;43.72;31.45;;;3.10;74.30;;;;;;5075807;28;20047;-74
2022/03/03 02:33:51;;;;;;;42.78;31.70;;;3.10;74.50;;;;;;5077571;28;20024;-75
2022/03/03 02:36:21;;;;;;;41.45;30.90;;;3.10;74.60;;;;;;5078484;28;20123;-72
2022/03/03 02:38:49;;;;;;;43.20;31.20;;;3.00;74.70;;;;;;5077823;28;20035;-71
2022/03/03 02:41:15;;;;;;;44.40;32.22;;;3.00;74.90;;;;;;5067990;28;20040;-73
2022/03/03 02:43:42;;;;;;;42.47;30.85;;;3.00;75.00;;;;;;5080388;28;20508;-76
2022/03/03 02:46:09;;;;;;;43.60;31.27;;;3.00;75.10;;;;;;5085462;28;20040;-76
2022/03/03 02:48:35;;;;;;;46.50;32.00;;;3.00;75.20;;;;;;5083974;28;20391;-79
2022/03/03 02:51:02;;;;;;;46.58;32.22;;;3.00;75.40;;;;;;5081301;28;20529;-73
2022/03/03 02:53:28;;;;;;;41.03;31.63;;;2.90;75.50;;;;;;5078092;28;20036;-75
2022/03/03 02:55:54;;;;;;;41.97;31.23;;;2.90;75.60;;;;;;5070164;28;20081;-72
2022/03/03 02:58:19;;;;;;;44.53;31.80;;;2.90;75.80;;;;;;5076922;28;20647;-73
2022/03/03 03:00:47;;;;;;;46.30;31.58;;;2.90;76.00;;;;;;5077295;28;20044;-73
2022/03/03 03:03:13;;;;;;;40.53;29.95;;;2.80;76.10;;;;;;5064221;28;20042;-73
2022/03/03 03:05:39;;;;;;;43.38;30.80;;;2.80;76.20;;;;;;5063323;28;20133;-73
2022/03/03 03:08:05;;;;;;;44.10;31.27;;;2.80;76.30;;;;;;5070133;28;20052;-72
2022/03/03 03:10:31;;;;;;;42.45;31.52;;;2.80;76.40;;;;;;5067467;28;20451;-73
2022/03/03 03:12:57;;;;;;;43.28;31.58;;;2.70;76.30;;;;;;5076028;28;20067;-74
2022/03/03 03:15:23;;;;;;;49.33;31.80;;;2.70;76.30;;;;;;5072586;28;20035;-73
2022/03/03 03:17:49;;;;;;;44.88;32.42;;;2.60;76.40;;;;;;5079754;28;20043;-76
2022/03/03 03:20:15;;;;;;;48.10;32.72;;;2.60;76.60;;;;;;5073749;28;20055;-72
2022/03/03 03:22:40;;;;;;;46.13;32.15;;;2.60;76.70;;;;;;5072184;28;20875;-72
2022/03/03 03:25:09;;;;;;;48.40;31.88;;;2.60;76.60;;;;;;5072674;28;20501;-73
2022/03/03 03:27:37;;;;;;;45.42;31.73;;;2.60;76.50;;;;;;5069478;28;20028;-72
2022/03/03 03:30:06;;;;;;;46.63;31.80;;;2.50;76.70;;;;;;5070526;28;20083;-73
2022/03/03 03:32:32;;;;;;;41.53;30.55;;;2.40;76.80;;;;;;5071753;28;20037;-72
2022/03/03 03:34:58;;;;;;;39.80;30.08;;;2.40;77.10;;;;;;5075328;28;20083;-74
2022/03/03 03:37:24;;;;;;;45.58;32.50;;;2.40;77.30;;;;;;5082371;28;20051;-72
2022/03/03 03:39:49;;;;;;;43.30;31.45;;;2.30;77.50;;;;;;5080523;28;20047;-73
2022/03/03 03:42:15;;;;;;;44.97;30.48;;;2.40;77.60;;;;;;5076872;28;20048;-74
2022/03/03 03:44:40;;;;;;;43.50;30.27;;;2.40;77.60;;;;;;5070781;28;20028;-73
2022/03/03 03:47:07;;;;;;;44.22;32.67;;;2.40;77.60;;;;;;5066602;28;20064;-72
2022/03/03 03:49:33;;;;;;;45.00;32.13;;;2.30;77.70;;;;;;5071445;28;20054;-72
2022/03/03 03:51:59;;;;;;;43.50;32.80;;;2.30;77.70;;;;;;5080006;28;20067;-73
2022/03/03 03:54:26;;;;;;;48.58;32.22;;;2.30;77.60;;;;;;5068706;28;20032;-72
2022/03/03 03:56:51;;;;;;;44.55;30.90;;;2.30;77.70;;;;;;5078429;28;20024;-74
2022/03/03 03:59:17;;;;;;;46.40;31.77;;;2.30;77.80;;;;;;5073545;28;20044;-75
2022/03/03 04:01:43;;;;;;;42.15;30.13;;;2.20;77.80;;;;;;5077408;28;20080;-75
2022/03/03 04:04:08;;;;;;;44.35;30.90;;;2.30;77.90;;;;;;5071558;28;20081;-72
2022/03/03 04:06:34;;;;;;;45.30;31.90;;;2.20;78.00;;;;;;5073115;28;20382;-72
2022/03/03 04:08:59;;;;;;;48.58;31.35;;;2.20;78.00;;;;;;5084321;28;20028;-72
2022/03/03 04:11:26;;;;;;;45.15;32.22;;;2.20;78.10;;;;;;5077383;28;20098;-74
2022/03/03 04:13:52;;;;;;;44.13;31.05;;;2.20;78.10;;;;;;5072872;28;20439;-72
2022/03/03 04:16:18;;;;;;;44.67;29.73;;;2.20;78.10;;;;;;5075102;28;20060;-73
2022/03/03 04:18:43;;;;;;;41.53;29.73;;;2.20;78.10;;;;;;5075571;28;20024;-74
2022/03/03 04:21:09;;;;;;;39.15;29.48;;;2.20;78.20;;;;;;5077998;28;20028;-74
2022/03/03 04:23:34;;;;;;;45.40;32.15;;;2.20;78.30;;;;;;5088690;28;20098;-74
2022/03/03 04:26:00;;;;;;;42.80;31.52;;;2.10;78.30;;;;;;5089710;28;20036;-75
2022/03/03 04:28:26;;;;;;;45.67;31.58;;;2.10;78.50;;;;;;5082595;28;20518;-74
2022/03/03 04:30:51;;;;;;;45.17;31.25;;;2.10;78.50;;;;;;5087498;28;20047;-74
2022/03/03 04:33:17;;;;;;;41.70;30.42;;;2.10;78.60;;;;;;5078779;28;20135;-72
2022/03/03 04:35:43;;;;;;;40.03;29.48;;;2.10;78.80;;;;;;5081141;28;20114;-75
2022/03/03 04:38:08;;;;;;;42.92;30.52;;;2.00;78.70;;;;;;5082986;28;20074;-77
2022/03/03 04:40:34;;;;;;;43.25;30.42;;;2.00;78.80;;;;;;5080247;28;20071;-72
2022/03/03 04:42:59;;;;;;;45.22;31.30;;;2.00;78.90;;;;;;5071047;28;20119;-75
2022/03/03 04:45:25;;;;;;;42.35;29.35;;;1.90;78.90;;;;;;5081900;28;20036;-73
2022/03/03 04:47:51;;;;;;;40.45;28.92;;;1.90;79.00;;;;;;5068842;28;20125;-75
2022/03/03 04:50:17;;;;;;;42.00;29.65;;;1.90;79.00;;;;;;5092446;28;20048;-74
2022/03/03 04:52:43;;;;;;;41.20;29.23;;;2.00;78.90;;;;;;5076074;28;20043;-72
2022/03/03 04:55:10;;;;;;;44.65;30.63;;;2.00;78.90;;;;;;5080975;28;20036;-74
2022/03/03 04:57:36;;;;;;;44.15;30.00;;;1.90;78.90;;;;;;5079540;28;20028;-75
2022/03/03 05:00:04;;;;;;;43.03;30.13;;;1.90;78.90;;;;;;5092839;28;20512;-73
2022/03/03 05:02:30;;;;;;;43.38;29.38;;;1.80;79.00;;;;;;5070557;28;20032;-72
2022/03/03 05:04:55;;;;;;;42.70;29.60;;;1.80;79.00;;;;;;5077228;28;20080;-72
2022/03/03 05:07:21;;;;;;;46.72;30.20;;;1.80;79.10;;;;;;5083606;28;20043;-74
2022/03/03 05:09:47;;;;;;;44.70;29.75;;;1.80;79.20;;;;;;5073708;28;20052;-76
2022/03/03 05:12:13;;;;;;;41.95;30.70;;;1.80;79.30;;;;;;5087874;28;20492;-72
2022/03/03 05:14:38;;;;;;;43.67;30.80;;;1.70;79.40;;;;;;5075397;28;20040;-72
2022/03/03 05:17:04;;;;;;;50.92;32.65;;;1.70;79.60;;;;;;5079626;28;20032;-74
2022/03/03 05:19:30;;;;;;;46.00;30.25;;;1.70;79.70;;;;;;5080167;28;20033;-75
2022/03/03 05:21:55;;;;;;;44.40;30.70;;;1.70;79.80;;;;;;5084327;28;20028;-74
2022/03/03 05:24:21;;;;;;;46.83;31.00;;;1.70;79.80;;;;;;5086853;27;20114;-73
2022/03/03 05:26:47;;;;;;;44.15;29.60;;;1.70;79.80;;;;;;5081745;28;20032;-75
2022/03/03 05:29:12;;;;;;;41.50;28.88;;;1.70;79.80;;;;;;5080494;28;20651;-72
2022/03/03 05:31:38;;;;;;;43.38;28.75;;;1.70;79.70;;;;;;5072781;28;20070;-74
2022/03/03 05:34:03;;;;;;;42.17;29.40;;;1.70;79.60;;;;;;5076424;28;20848;-74
2022/03/03 05:36:30;;;;;;;45.95;28.60;;;1.70;79.60;;;;;;5079086;28;20028;-72
2022/03/03 05:38:57;;;;;;;50.38;32.45;;;1.70;79.60;;;;;;5082522;28;20139;-72
2022/03/03 05:41:23;;;;;;;45.88;30.02;;;1.70;79.50;;;;;;5073792;28;20038;-75
2022/03/03 05:43:49;;;;;;;44.63;28.50;;;1.70;79.40;;;;;;5083505;28;20817;-74
2022/03/03 05:46:15;;;;;;;48.92;31.83;;;1.70;79.40;;;;;;5073000;28;20439;-72
2022/03/03 05:48:41;;;;;;;47.25;31.17;;;1.70;79.40;;;;;;5081014;28;20575;-74
2022/03/03 05:51:07;;;;;;;43.40;30.23;;;1.70;79.40;;;;;;5069526;28;20135;-73
2022/03/03 05:53:33;;;;;;;45.55;30.85;;;1.70;79.50;;;;;;5080685;28;20135;-73
2022/03/03 05:56:01;;;;;;;50.83;31.58;;;1.70;79.50;;;;;;5081383;28;20048;-74
2022/03/03 05:58:43;;;;;;;41.40;29.17;;;1.70;79.50;;;;;;5082893;28;20484;-77
2022/03/03 06:01:10;;;;;;;45.95;30.60;;;1.70;79.60;;;;;;5081655;28;20076;-72
2022/03/03 06:03:36;;;;;;;47.70;31.52;;;1.70;79.40;;;;;;5076189;28;20093;-78
2022/03/03 06:06:16;;;;;;;48.05;31.08;;;1.70;79.30;;;;;;5080585;28;20032;-73
2022/03/03 06:08:52;;;;;;;52.33;33.63;;;1.70;79.10;;;;;;5082566;28;20043;-74
2022/03/03 06:11:20;;;;;;;44.97;29.52;;;1.60;79.10;;;;;;5073314;28;20138;-74
2022/03/03 06:13:47;;;;;;;48.20;31.23;;;1.60;79.20;;;;;;5079045;28;20032;-76
2022/03/03 06:16:20;;;;;;;46.15;31.50;;;1.70;79.20;;;;;;5079499;28;20123;-73
2022/03/03 06:18:48;;;;;;;44.67;30.00;;;1.70;79.20;;;;;;5079841;28;20027;-75
2022/03/03 06:21:17;;;;;;;44.28;30.17;;;1.70;79.20;;;;;;5079343;28;20779;-73
2022/03/03 06:23:43;;;;;;;47.17;30.38;;;1.70;79.20;;;;;;5083646;28;20036;-75
2022/03/03 06:26:12;;;;;;;46.40;29.77;;;1.70;79.20;;;;;;5076724;28;20095;-74
2022/03/03 06:28:38;;;;;;;45.45;30.50;;;1.70;79.10;;;;;;5079176;28;20139;-73
2022/03/03 06:31:05;;;;;;;47.28;29.73;;;1.70;79.00;;;;;;5075671;28;20044;-73
2022/03/03 06:33:30;;;;;;;47.55;31.92;;;1.70;79.00;;;;;;5083887;28;20534;-74
2022/03/03 06:35:56;;;;;;;47.72;30.77;;;1.70;79.00;;;;;;5088600;28;20084;-73
2022/03/03 06:38:22;;;;;;;51.22;30.55;;;1.70;78.80;;;;;;5081131;28;20039;-75
2022/03/03 06:40:49;;;;;;;46.88;30.88;;;1.80;78.80;;;;;;5085902;28;20047;-77
2022/03/03 06:43:16;;;;;;;50.97;29.67;;;1.70;78.80;;;;;;5073111;28;20038;-76
2022/03/03 06:45:41;;;;;;;43.30;29.15;;;1.80;78.70;;;;;;5086845;28;20040;-77
2022/03/03 06:48:07;;;;;;;50.33;31.75;;;1.80;78.70;;;;;;5090539;28;20036;-76
2022/03/03 06:50:38;;;;;;;44.88;30.73;;;1.80;78.70;;;;;;5084652;28;20039;-74
2022/03/03 06:53:07;;;;;;;42.55;29.40;;;1.90;78.60;;;;;;5081534;28;20309;-75
2022/03/03 06:55:33;;;;;;;44.15;29.42;;;1.90;78.50;;;;;;5087018;28;20036;-74
2022/03/03 06:57:59;;;;;;;46.53;29.73;;;2.00;78.30;;;;;;5080513;28;20070;-76
2022/03/03 07:00:28;;;;;;;40.92;28.17;;;2.10;78.30;;;;;;5082038;28;20040;-77
2022/03/03 07:02:54;;;;;;;42.35;29.05;;;2.10;78.10;;;;;;5076208;28;20032;-77
2022/03/03 07:05:21;;;;;;;43.00;29.13;;;2.20;77.90;;;;;;5092650;28;20065;-75
2022/03/03 07:07:48;;;;;;;43.90;28.63;;;2.30;77.80;;;;;;5082602;28;20155;-75
2022/03/03 07:10:19;;;;;;;46.83;30.63;;;2.40;77.40;;;;;;5083266;28;20494;-75
2022/03/03 07:12:45;;;;;;;46.13;32.13;;;2.40;77.20;;;;;;5084340;28;20215;-74
2022/03/03 07:15:11;;;;;;;44.90;32.88;;;2.40;76.90;;;;;;5080364;28;20677;-75
2022/03/03 07:17:53;;;;;;;46.55;32.10;;;2.40;76.80;;;;;;5081686;28;20427;-78
2022/03/03 07:20:44;;;;;;;44.15;30.50;;;2.50;76.80;;;;;;5082126;28;20074;-75
2022/03/03 07:23:21;;;;;;;43.55;30.35;;;2.50;76.70;;;;;;5080048;28;20036;-75
2022/03/03 07:25:51;;;;;;;44.05;30.08;;;2.50;76.70;;;;;;5082180;28;20032;-74
2022/03/03 07:28:18;;;;;;;48.10;33.17;;;2.60;76.70;;;;;;5074025;28;20807;-75
2022/03/03 07:30:44;;;;;;;59.25;40.10;;;2.60;76.70;;;;;;5081538;28;20399;-75
2022/03/03 07:33:23;;;;;;;56.78;38.65;;;2.70;76.60;;;;;;5076642;27;20036;-74
2022/03/03 07:35:50;;;;;;;50.50;36.42;;;2.70;76.60;;;;;;5082008;28;20035;-76
2022/03/03 07:38:19;;;;;;;51.85;34.42;;;2.80;76.50;;;;;;5071070;28;20133;-76
2022/03/03 07:40:48;;;;;;;53.30;31.88;;;2.90;76.30;;;;;;5079232;28;20036;-77
2022/03/03 07:43:15;;;;;;;43.17;30.92;;;3.00;76.00;;;;;;5075715;28;20128;-76
2022/03/03 07:45:42;;;;;;;45.95;30.02;;;3.10;76.00;;;;;;5068795;28;20040;-76
2022/03/03 07:48:08;;;;;;;41.60;29.20;;;3.10;75.90;;;;;;5076413;28;20032;-75
2022/03/03 07:50:39;;;;;;;43.88;30.27;;;3.10;75.80;;;;;;5080778;28;20070;-74
2022/03/03 07:53:10;;;;;;;41.45;29.15;;;3.30;75.60;;;;;;5084960;27;20048;-77
2022/03/03 07:55:48;;;;;;;37.22;26.38;;;3.40;75.70;;;;;;5080172;28;20120;-76
2022/03/03 07:58:20;;;;;;;40.95;29.23;;;3.50;75.60;;;;;;5075861;28;20649;-75
2022/03/03 08:00:51;;;;;;;43.60;28.13;;;3.60;75.40;;;;;;5078253;28;20086;-76
2022/03/03 08:03:19;;;;;;;43.00;28.58;;;3.60;75.10;;;;;;5081486;28;20494;-75
2022/03/03 08:05:48;;;;;;;45.13;30.08;;;3.80;74.90;;;;;;5079281;28;20471;-73
2022/03/03 08:08:16;;;;;;;45.22;30.75;;;3.90;74.60;;;;;;5080932;28;20032;-74
2022/03/03 08:10:43;;;;;;;49.00;29.23;;;4.00;74.50;;;;;;5078704;28;20127;-74
2022/03/03 08:13:15;;;;;;;46.30;29.95;;;4.10;73.90;;;;;;5080743;28;20047;-75
2022/03/03 08:15:42;;;;;;;39.88;28.73;;;4.20;73.50;;;;;;5074805;28;20360;-75
2022/03/03 08:18:09;;;;;;;40.58;29.25;;;4.40;73.40;;;;;;5077715;28;20105;-77
2022/03/03 08:20:38;;;;;;;43.30;29.98;;;4.60;73.00;;;;;;5079111;28;20124;-76
2022/03/03 08:23:05;;;;;;;44.55;29.65;;;4.70;72.90;;;;;;5078091;28;20980;-72
2022/03/03 08:25:32;;;;;;;41.75;29.52;;;5.00;72.40;;;;;;5079254;28;20039;-72
2022/03/03 08:27:57;;;;;;;41.83;28.13;;;5.10;71.90;;;;;;5081375;28;20036;-73
2022/03/03 08:30:24;;;;;;;45.35;30.48;;;5.30;72.00;;;;;;5078833;28;20056;-74
2022/03/03 08:33:12;;;;;;;39.72;29.73;;;5.60;71.40;;;;;;5081349;28;20040;-77
2022/03/03 08:35:40;;;;;;;44.42;29.25;;;5.80;71.30;;;;;;5075664;28;20039;-75
2022/03/03 08:38:07;;;;;;;44.00;30.45;;;6.10;71.20;;;;;;5083581;28;20054;-76
2022/03/03 08:40:35;;;;;;;44.15;30.10;;;6.30;70.80;;;;;;5087077;28;20479;-73
2022/03/03 08:43:03;;;;;;;44.67;31.55;;;6.50;69.70;;;;;;5091334;28;20039;-73
2022/03/03 08:45:32;;;;;;;44.58;29.38;;;6.60;69.60;;;;;;5088025;28;20041;-74
2022/03/03 08:48:01;;;;;;;44.15;31.02;;;6.90;68.80;;;;;;5091275;28;20058;-77
2022/03/03 08:50:28;;;;;;;37.90;29.38;;;7.10;68.20;;;;;;5083689;28;20055;-75
2022/03/03 08:52:56;;;;;;;36.63;27.83;;;7.20;67.80;;;;;;5084843;28;20059;-77
2022/03/03 08:55:23;;;;;;;43.60;28.83;;;7.40;67.40;;;;;;5079608;28;20483;-73
2022/03/03 08:57:49;;;;;;;38.50;27.38;;;7.60;66.70;;;;;;5080695;28;20036;-74
2022/03/03 09:00:15;;;;;;;38.65;28.27;;;7.70;66.00;;;;;;5074338;28;20037;-72
2022/03/03 09:02:41;;;;;;;39.83;28.33;;;8.00;65.30;;;;;;5078070;28;20037;-73
2022/03/03 09:05:08;;;;;;;40.95;29.42;;;8.10;65.00;;;;;;5076196;28;20097;-71
2022/03/03 09:07:34;;;;;;;42.05;30.95;;;8.20;64.90;;;;;;5079387;28;20052;-76
2022/03/03 09:10:00;;;;;;;38.67;29.52;;;8.40;65.10;;;;;;5078996;28;20163;-71
2022/03/03 09:12:26;;;;;;;39.25;29.40;;;8.60;64.70;;;;;;5075255;28;20028;-74
2022/03/03 09:14:51;;;;;;;40.38;28.80;;;8.80;63.80;;;;;;5078497;28;20028;-75
2022/03/03 09:17:17;;;;;;;37.72;28.58;;;8.90;63.10;;;;;;5072717;28;20428;-74
2022/03/03 09:19:43;;;;;;;39.22;28.55;;;8.90;62.10;;;;;;5084507;28;20455;-72
2022/03/03 09:22:09;;;;;;;39.42;29.98;;;8.90;62.20;;;;;;5077584;28;20089;-74
2022/03/03 09:24:34;;;;;;;35.88;27.77;;;9.00;62.10;;;;;;5078972;28;20055;-76
2022/03/03 09:27:00;;;;;;;37.13;28.42;;;9.10;61.80;;;;;;5077093;28;20181;-74
2022/03/03 09:29:28;;;;;;;37.33;29.70;;;9.30;61.50;;;;;;5077916;28;20051;-73
2022/03/03 09:31:53;;;;;;;37.28;28.50;;;9.40;60.30;;;;;;5068936;28;20032;-72
2022/03/03 09:34:19;;;;;;;38.03;28.40;;;9.40;60.80;;;;;;5082138;28;20403;-75
2022/03/03 09:36:44;;;;;;;38.80;28.90;;;9.40;61.20;;;;;;5081356;28;20043;-71
2022/03/03 09:39:10;;;;;;;37.15;29.20;;;9.60;60.30;;;;;;5081075;28;20069;-73
2022/03/03 09:41:36;;;;;;;38.50;28.85;;;9.70;60.00;;;;;;5085224;28;20117;-82
2022/03/03 09:44:01;;;;;;;40.65;30.20;;;9.90;60.10;;;;;;5074994;28;20073;-75
2022/03/03 09:46:27;;;;;;;36.85;28.20;;;10.00;59.60;;;;;;5083979;28;20042;-74
2022/03/03 09:48:53;;;;;;;42.65;31.80;;;10.10;59.50;;;;;;5081803;28;20429;-76
2022/03/03 09:51:18;;;;;;;40.13;28.65;;;10.10;59.60;;;;;;5080174;28;20410;-72
2022/03/03 09:53:49;;;;;;;37.05;29.27;;;10.20;59.20;;;;;;5074669;28;20714;-77
2022/03/03 09:56:15;;;;;;;38.40;29.08;;;10.30;59.00;;;;;;5077309;28;20036;-73
2022/03/03 09:58:41;;;;;;;39.15;29.88;;;10.50;58.40;;;;;;5081325;28;20024;-74
2022/03/03 10:01:07;;;;;;;38.13;29.38;;;10.50;58.80;;;;;;5083003;28;20039;-72
2022/03/03 10:03:34;;;;;;;41.13;31.15;;;10.60;57.80;;;;;;5078696;28;20036;-76
2022/03/03 10:06:01;;;;;;;42.80;30.27;;;10.60;58.30;;;;;;5079404;28;20043;-75
2022/03/03 10:08:29;;;;;;;41.80;29.63;;;10.80;58.20;;;;;;5085134;28;20032;-72
2022/03/03 10:10:57;;;;;;;42.55;31.33;;;11.00;58.20;;;;;;5078948;28;20052;-71
2022/03/03 10:13:23;;;;;;;41.08;29.98;;;11.10;57.40;;;;;;5076845;28;20040;-73
2022/03/03 10:15:56;;;;;;;42.47;31.50;;;11.10;57.40;;;;;;5079853;28;20573;-72
2022/03/03 10:18:23;;;;;;;45.20;30.73;;;11.20;57.00;;;;;;5072358;28;20032;-75
2022/03/03 10:20:58;;;;;;;41.10;31.00;;;11.20;57.10;;;;;;5079479;28;20043;-73
2022/03/03 10:23:28;;;;;;;42.05;30.83;;;11.50;57.00;;;;;;5073765;28;20920;-74
2022/03/03 10:25:56;;;;;;;41.08;30.88;;;11.60;56.60;;;;;;5071931;28;20073;-76
2022/03/03 10:28:25;;;;;;;39.58;30.77;;;11.70;56.50;;;;;;5070317;28;20043;-74
2022/03/03 10:30:59;;;;;;;39.53;32.33;;;11.60;57.10;;;;;;5077328;28;20046;-74
2022/03/03 10:33:31;;;;;;;40.35;31.90;;;11.60;56.10;;;;;;5075132;28;20070;-75
2022/03/03 10:35:59;;;;;;;40.65;32.70;;;11.60;56.30;;;;;;5093833;28;20043;-73
2022/03/03 10:38:25;;;;;;;44.97;32.83;;;11.70;57.00;;;;;;5074126;28;20080;-75
2022/03/03 10:40:51;;;;;;;36.92;29.55;;;11.80;57.10;;;;;;5070602;28;20040;-78
2022/03/03 10:43:17;;;;;;;39.60;32.47;;;11.80;57.20;;;;;;5069831;28;20475;-78
2022/03/03 10:46:02;;;;;;;44.45;33.53;;;12.00;56.90;;;;;;5084369;28;20028;-74
2022/03/03 10:48:28;;;;;;;39.08;31.77;;;12.10;57.10;;;;;;5084244;28;20043;-81
2022/03/03 10:50:55;;;;;;;42.17;32.95;;;12.10;57.10;;;;;;5087326;28;20066;-74
2022/03/03 10:53:23;;;;;;;46.83;34.38;;;12.00;56.70;;;;;;5078437;28;20119;-79
2022/03/03 10:56:07;;;;;;;41.90;31.40;;;12.10;56.60;;;;;;5074873;28;20044;-75
2022/03/03 10:58:45;;;;;;;41.50;33.28;;;12.10;56.10;;;;;;5083282;28;20101;-76
2022/03/03 11:01:11;;;;;;;42.33;33.03;;;12.10;56.60;;;;;;5092719;28;20041;-73
2022/03/03 11:03:37;;;;;;;43.70;33.53;;;12.10;56.40;;;;;;5077020;28;20111;-76
2022/03/03 11:06:03;;;;;;;45.33;32.65;;;12.10;56.50;;;;;;5079208;28;20063;-74
2022/03/03 11:08:30;;;;;;;41.03;33.85;;;12.10;56.70;;;;;;5080047;28;20040;-73
2022/03/03 11:10:56;;;;;;;44.03;34.08;;;12.10;57.30;;;;;;5083959;28;20055;-74
2022/03/03 11:13:22;;;;;;;43.75;33.90;;;12.10;57.00;;;;;;5081601;28;20511;-74
2022/03/03 11:15:49;;;;;;;43.42;33.92;;;12.20;57.10;;;;;;5074253;28;20677;-73
2022/03/03 11:18:18;;;;;;;39.13;32.15;;;12.40;57.00;;;;;;5081638;28;20028;-73
2022/03/03 11:20:46;;;;;;;43.58;33.55;;;12.70;56.40;;;;;;5078891;28;20035;-75
2022/03/03 11:23:11;;;;;;;45.28;33.38;;;12.70;56.00;;;;;;5076924;28;20059;-75
2022/03/03 11:25:38;;;;;;;45.47;34.17;;;12.80;55.20;;;;;;5075004;28;20833;-75
2022/03/03 11:28:09;;;;;;;46.05;33.60;;;12.60;55.70;;;;;;5076659;28;20404;-76
2022/03/03 11:30:36;;;;;;;43.20;34.35;;;12.50;55.60;;;;;;5071674;28;20048;-74
2022/03/03 11:33:26;;;;;;;43.92;33.97;;;12.50;56.10;;;;;;5074084;28;20124;-83
2022/03/03 11:35:58;;;;;;;44.50;35.30;;;12.60;56.00;;;;;;5075354;28;20202;-74
2022/03/03 11:38:27;;;;;;;49.35;36.58;;;12.70;55.80;;;;;;5085381;28;20032;-80
2022/03/03 11:40:58;;;;;;;48.03;34.63;;;13.00;55.10;;;;;;5080340;28;20032;-75
2022/03/03 11:43:25;;;;;;;46.22;35.28;;;13.00;54.90;;;;;;5078361;28;20402;-75
2022/03/03 11:45:57;;;;;;;44.40;35.40;;;12.70;54.90;;;;;;5079027;28;20766;-74
2022/03/03 11:48:23;;;;;;;46.58;35.67;;;12.80;56.20;;;;;;5078171;28;20048;-75
2022/03/03 11:50:51;;;;;;;45.33;36.03;;;12.80;55.20;;;;;;5078870;28;20117;-78
2022/03/03 11:53:24;;;;;;;47.45;37.55;;;12.90;55.50;;;;;;5080464;28;20604;-75
2022/03/03 11:56:02;;;;;;;43.72;35.95;;;13.10;55.50;;;;;;5077648;28;20032;-77
2022/03/03 11:58:37;;;;;;;44.70;36.10;;;12.90;55.60;;;;;;5081360;28;20028;-75
2022/03/03 12:01:05;;;;;;;;;;;12.90;55.60;;;;;;5083453;28;20078;-74
2022/03/03 12:03:33;;;;;;;45.78;36.00;;;12.90;54.80;;;;;;5083900;28;20859;-74
2022/03/03 12:06:12;;;;;;;46.65;36.55;;;12.80;55.50;;;;;;5074994;28;20047;-74
2022/03/03 12:08:40;;;;;;;44.53;36.05;;;13.00;55.70;;;;;;5088538;28;20062;-74
2022/03/03 12:11:17;;;;;;;51.13;38.70;;;13.10;55.20;;;;;;5080504;28;20052;-73
2022/03/03 12:13:47;;;;;;;48.80;37.67;;;13.10;55.60;;;;;;5079635;28;20036;-76
2022/03/03 12:16:19;;;;;;;49.13;38.33;;;13.00;56.00;;;;;;5079559;28;20032;-74
2022/03/03 12:19:07;;;;;;;49.22;37.58;;;13.20;56.00;;;;;;5083581;28;20745;-74
2022/03/03 12:21:47;;;;;;;45.80;37.63;;;13.30;55.10;;;;;;5076983;28;20063;-76
2022/03/03 12:24:13;;;;;;;46.67;36.65;;;13.40;55.10;;;;;;5079253;28;20035;-75
2022/03/03 12:26:59;;;;;;;45.08;36.50;;;13.50;54.50;;;;;;5071096;28;20048;-78
2022/03/03 12:29:45;;;;;;;47.03;37.65;;;13.60;54.40;;;;;;5091098;27;20051;-74
2022/03/03 12:32:27;;;;;;;47.40;39.05;;;13.70;54.30;;;;;;5092640;28;20837;-75
2022/03/03 12:35:00;;;;;;;47.45;37.22;;;13.70;54.40;;;;;;5085642;27;20033;-75
2022/03/03 12:37:27;;;;;;;46.72;36.50;;;13.70;54.90;;;;;;5069907;28;20056;-82